sensor_id;sensor_type;location;lat;lon;timestamp;temperature;humidity
13650;DHT22;6898;50.918;4.688;2023-10-09T00:00:07;16.70;99.90
13650;DHT22;6898;50.918;4.688;2023-10-09T00:03:01;16.70;99.90
13650;DHT22;6898;50.918;4.688;2023-10-09T00:05:30;16.60;99.90
13650;DHT22;6898;50.918;4.688;2023-10-09T00:08:14;16.60;99.90
13650;DHT22;6898;50.918;4.688;2023-10-09T00:10:46;16.50;99.90
13650;DHT22;6898;50.918;4.688;2023-10-09T00:13:19;16.40;99.90
13650;DHT22;6898;50.918;4.688;2023-10-09T00:15:54;16.40;99.90
13650;DHT22;6898;50.918;4.688;2023-10-09T00:18:27;16.40;99.90
13650;DHT22;6898;50.918;4.688;2023-10-09T00:20:57;16.50;99.90
13650;DHT22;6898;50.918;4.688;2023-10-09T00:23:39;16.40;99.90
13650;DHT22;6898;50.918;4.688;2023-10-09T00:26:08;16.50;99.90
13650;DHT22;6898;50.918;4.688;2023-10-09T00:28:39;16.50;99.90
13650;DHT22;6898;50.918;4.688;2023-10-09T00:31:10;16.50;99.90
13650;DHT22;6898;50.918;4.688;2023-10-09T00:33:42;16.60;99.90
13650;DHT22;6898;50.918;4.688;2023-10-09T00:36:11;16.50;99.90
13650;DHT22;6898;50.918;4.688;2023-10-09T00:38:46;16.40;99.90
13650;DHT22;6898;50.918;4.688;2023-10-09T00:41:16;16.30;99.90
13650;DHT22;6898;50.918;4.688;2023-10-09T00:43:47;16.30;99.90
13650;DHT22;6898;50.918;4.688;2023-10-09T00:46:19;16.20;99.90
13650;DHT22;6898;50.918;4.688;2023-10-09T00:48:58;16.30;99.90
13650;DHT22;6898;50.918;4.688;2023-10-09T00:51:30;16.20;99.90
13650;DHT22;6898;50.918;4.688;2023-10-09T00:54:05;16.20;99.90
13650;DHT22;6898;50.918;4.688;2023-10-09T00:56:42;16.20;99.90
13650;DHT22;6898;50.918;4.688;2023-10-09T00:59:16;16.20;99.90
13650;DHT22;6898;50.918;4.688;2023-10-09T01:01:47;16.20;99.90
13650;DHT22;6898;50.918;4.688;2023-10-09T01:04:23;16.20;99.90
13650;DHT22;6898;50.918;4.688;2023-10-09T01:06:54;16.30;99.90
13650;DHT22;6898;50.918;4.688;2023-10-09T01:09:36;16.30;99.90
13650;DHT22;6898;50.918;4.688;2023-10-09T01:12:05;16.30;99.90
13650;DHT22;6898;50.918;4.688;2023-10-09T01:14:34;16.20;99.90
13650;DHT22;6898;50.918;4.688;2023-10-09T01:17:08;16.20;99.90
13650;DHT22;6898;50.918;4.688;2023-10-09T01:19:38;16.20;99.90
13650;DHT22;6898;50.918;4.688;2023-10-09T01:22:06;16.30;99.90
13650;DHT22;6898;50.918;4.688;2023-10-09T01:24:42;16.30;99.90
13650;DHT22;6898;50.918;4.688;2023-10-09T01:27:11;16.20;99.90
13650;DHT22;6898;50.918;4.688;2023-10-09T01:29:42;16.10;99.90
13650;DHT22;6898;50.918;4.688;2023-10-09T01:32:13;16.10;99.90
13650;DHT22;6898;50.918;4.688;2023-10-09T01:34:46;16.10;99.90
13650;DHT22;6898;50.918;4.688;2023-10-09T01:37:18;16.10;99.90
13650;DHT22;6898;50.918;4.688;2023-10-09T01:39:51;16.10;99.90
13650;DHT22;6898;50.918;4.688;2023-10-09T01:42:20;16.20;99.90
13650;DHT22;6898;50.918;4.688;2023-10-09T01:44:54;16.20;99.90
13650;DHT22;6898;50.918;4.688;2023-10-09T01:47:25;16.20;99.90
13650;DHT22;6898;50.918;4.688;2023-10-09T23:22:45;16.40;99.90
13650;DHT22;6898;50.918;4.688;2023-10-09T23:25:16;15.00;99.90
13650;DHT22;6898;50.918;4.688;2023-10-09T23:27:54;14.90;99.90
13650;DHT22;6898;50.918;4.688;2023-10-09T23:30:42;14.90;99.90
13650;DHT22;6898;50.918;4.688;2023-10-09T23:33:11;14.90;99.90
13650;DHT22;6898;50.918;4.688;2023-10-09T23:35:47;14.80;99.90
13650;DHT22;6898;50.918;4.688;2023-10-09T23:38:22;14.90;99.90
13650;DHT22;6898;50.918;4.688;2023-10-09T23:40:59;14.90;99.90
13650;DHT22;6898;50.918;4.688;2023-10-09T23:43:31;14.90;99.90
13650;DHT22;6898;50.918;4.688;2023-10-09T23:46:01;14.90;99.90
13650;DHT22;6898;50.918;4.688;2023-10-09T23:48:34;14.80;99.90
13650;DHT22;6898;50.918;4.688;2023-10-09T23:51:04;14.80;99.90
13650;DHT22;6898;50.918;4.688;2023-10-09T23:53:39;14.90;99.90
13650;DHT22;6898;50.918;4.688;2023-10-09T23:56:14;14.80;99.90
13650;DHT22;6898;50.918;4.688;2023-10-09T23:59:02;14.90;99.90
